sensor_id;sensor_type;location;lat;lon;timestamp;temperature;humidity
11246;DHT22;59870;50.106;8.580;2023-08-07T00:02:13;18.70;93.80
11246;DHT22;59870;50.106;8.580;2023-08-07T00:04:41;18.60;93.90
11246;DHT22;59870;50.106;8.580;2023-08-07T00:07:08;18.80;93.90
11246;DHT22;59870;50.106;8.580;2023-08-07T00:09:35;18.60;94.00
11246;DHT22;59870;50.106;8.580;2023-08-07T00:12:03;18.60;93.70
11246;DHT22;59870;50.106;8.580;2023-08-07T00:14:31;18.60;93.80
11246;DHT22;59870;50.106;8.580;2023-08-07T00:16:58;18.60;93.60
11246;DHT22;59870;50.106;8.580;2023-08-07T00:19:25;18.60;93.60
11246;DHT22;59870;50.106;8.580;2023-08-07T00:21:53;18.60;93.90
11246;DHT22;59870;50.106;8.580;2023-08-07T00:24:21;18.60;94.00
11246;DHT22;59870;50.106;8.580;2023-08-07T00:26:48;18.60;93.60
11246;DHT22;59870;50.106;8.580;2023-08-07T00:29:16;18.90;93.80
11246;DHT22;59870;50.106;8.580;2023-08-07T00:31:43;18.80;94.10
11246;DHT22;59870;50.106;8.580;2023-08-07T00:34:11;18.60;94.00
11246;DHT22;59870;50.106;8.580;2023-08-07T00:36:38;18.60;93.90
11246;DHT22;59870;50.106;8.580;2023-08-07T00:39:06;18.90;93.90
11246;DHT22;59870;50.106;8.580;2023-08-07T00:41:39;18.60;93.90
11246;DHT22;59870;50.106;8.580;2023-08-07T00:44:06;18.50;94.00
11246;DHT22;59870;50.106;8.580;2023-08-07T00:46:34;18.80;93.80
11246;DHT22;59870;50.106;8.580;2023-08-07T00:49:03;18.50;93.70
11246;DHT22;59870;50.106;8.580;2023-08-07T00:51:31;18.60;93.30
11246;DHT22;59870;50.106;8.580;2023-08-07T00:54:00;18.60;93.60
11246;DHT22;59870;50.106;8.580;2023-08-07T00:56:30;18.80;93.70
11246;DHT22;59870;50.106;8.580;2023-08-07T00:59:01;18.60;93.70
11246;DHT22;59870;50.106;8.580;2023-08-07T01:01:30;18.50;93.70
11246;DHT22;59870;50.106;8.580;2023-08-07T01:03:57;18.50;93.50
11246;DHT22;59870;50.106;8.580;2023-08-07T01:06:26;18.60;93.40
11246;DHT22;59870;50.106;8.580;2023-08-07T01:08:54;18.90;93.70
11246;DHT22;59870;50.106;8.580;2023-08-07T01:12:01;18.60;93.60
11246;DHT22;59870;50.106;8.580;2023-08-07T01:17:15;18.50;93.40
11246;DHT22;59870;50.106;8.580;2023-08-07T01:19:43;18.50;93.50
11246;DHT22;59870;50.106;8.580;2023-08-07T01:22:16;18.50;93.60
11246;DHT22;59870;50.106;8.580;2023-08-07T01:24:48;18.70;93.60
11246;DHT22;59870;50.106;8.580;2023-08-07T01:30:02;18.50;93.60
11246;DHT22;59870;50.106;8.580;2023-08-07T01:35:07;18.40;93.30
11246;DHT22;59870;50.106;8.580;2023-08-07T01:37:39;18.50;93.40
11246;DHT22;59870;50.106;8.580;2023-08-07T01:40:10;18.50;93.40
11246;DHT22;59870;50.106;8.580;2023-08-07T01:42:38;18.50;93.20
11246;DHT22;59870;50.106;8.580;2023-08-07T01:45:06;18.40;93.30
11246;DHT22;59870;50.106;8.580;2023-08-07T01:47:34;18.40;93.00
11246;DHT22;59870;50.106;8.580;2023-08-07T01:50:02;18.40;92.90
11246;DHT22;59870;50.106;8.580;2023-08-07T01:52:30;18.40;93.10
11246;DHT22;59870;50.106;8.580;2023-08-07T01:54:58;18.40;93.00
11246;DHT22;59870;50.106;8.580;2023-08-07T01:57:25;18.40;93.00
11246;DHT22;59870;50.106;8.580;2023-08-07T01:59:53;18.30;92.90
11246;DHT22;59870;50.106;8.580;2023-08-07T02:02:20;18.70;93.20
11246;DHT22;59870;50.106;8.580;2023-08-07T02:04:47;18.30;93.00
11246;DHT22;59870;50.106;8.580;2023-08-07T02:07:15;18.30;92.80
11246;DHT22;59870;50.106;8.580;2023-08-07T02:09:43;18.30;93.00
11246;DHT22;59870;50.106;8.580;2023-08-07T02:12:10;18.30;92.80
11246;DHT22;59870;50.106;8.580;2023-08-07T02:14:37;18.30;92.70
11246;DHT22;59870;50.106;8.580;2023-08-07T02:17:05;18.70;93.00
11246;DHT22;59870;50.106;8.580;2023-08-07T02:19:33;18.40;92.90
11246;DHT22;59870;50.106;8.580;2023-08-07T02:22:01;18.30;92.90
11246;DHT22;59870;50.106;8.580;2023-08-07T02:24:28;18.30;92.80
11246;DHT22;59870;50.106;8.580;2023-08-07T02:26:56;18.30;92.90
11246;DHT22;59870;50.106;8.580;2023-08-07T02:29:23;18.30;92.80
11246;DHT22;59870;50.106;8.580;2023-08-07T02:31:51;18.30;92.60
11246;DHT22;59870;50.106;8.580;2023-08-07T02:34:18;18.30;92.80
11246;DHT22;59870;50.106;8.580;2023-08-07T02:36:45;18.30;92.70
11246;DHT22;59870;50.106;8.580;2023-08-07T02:39:13;18.30;92.60
11246;DHT22;59870;50.106;8.580;2023-08-07T02:41:41;18.40;92.80
11246;DHT22;59870;50.106;8.580;2023-08-07T02:44:09;18.20;92.80
11246;DHT22;59870;50.106;8.580;2023-08-07T02:46:36;18.20;92.90
11246;DHT22;59870;50.106;8.580;2023-08-07T02:49:04;18.20;92.90
11246;DHT22;59870;50.106;8.580;2023-08-07T02:51:32;18.20;93.00
11246;DHT22;59870;50.106;8.580;2023-08-07T02:53:59;18.20;93.00
11246;DHT22;59870;50.106;8.580;2023-08-07T02:56:27;18.20;93.00
11246;DHT22;59870;50.106;8.580;2023-08-07T02:58:54;18.20;93.10
11246;DHT22;59870;50.106;8.580;2023-08-07T03:01:22;18.20;93.10
11246;DHT22;59870;50.106;8.580;2023-08-07T03:03:49;18.50;93.20
11246;DHT22;59870;50.106;8.580;2023-08-07T03:06:17;18.60;93.30
11246;DHT22;59870;50.106;8.580;2023-08-07T03:08:44;18.20;93.10
11246;DHT22;59870;50.106;8.580;2023-08-07T03:11:12;18.20;93.10
11246;DHT22;59870;50.106;8.580;2023-08-07T03:13:39;18.30;93.00
11246;DHT22;59870;50.106;8.580;2023-08-07T03:16:07;18.30;93.20
11246;DHT22;59870;50.106;8.580;2023-08-07T03:18:35;18.20;93.10
11246;DHT22;59870;50.106;8.580;2023-08-07T03:21:03;18.30;93.30
11246;DHT22;59870;50.106;8.580;2023-08-07T03:23:30;18.60;93.20
11246;DHT22;59870;50.106;8.580;2023-08-07T03:26:06;18.20;93.20
11246;DHT22;59870;50.106;8.580;2023-08-07T03:28:45;18.20;93.00
11246;DHT22;59870;50.106;8.580;2023-08-07T03:31:17;18.20;93.00
11246;DHT22;59870;50.106;8.580;2023-08-07T03:33:46;18.20;93.10
11246;DHT22;59870;50.106;8.580;2023-08-07T03:36:14;18.20;93.10
11246;DHT22;59870;50.106;8.580;2023-08-07T03:38:42;18.30;93.10
11246;DHT22;59870;50.106;8.580;2023-08-07T03:41:10;18.20;93.10
11246;DHT22;59870;50.106;8.580;2023-08-07T03:43:40;18.20;93.10
11246;DHT22;59870;50.106;8.580;2023-08-07T03:46:08;18.20;93.30
11246;DHT22;59870;50.106;8.580;2023-08-07T03:48:35;18.30;93.20
11246;DHT22;59870;50.106;8.580;2023-08-07T03:51:07;18.10;93.10
11246;DHT22;59870;50.106;8.580;2023-08-07T03:53:46;18.20;93.60
11246;DHT22;59870;50.106;8.580;2023-08-07T03:56:14;18.20;93.20
11246;DHT22;59870;50.106;8.580;2023-08-07T03:58:42;18.20;93.00
11246;DHT22;59870;50.106;8.580;2023-08-07T04:01:09;18.20;93.00
11246;DHT22;59870;50.106;8.580;2023-08-07T04:03:39;18.10;93.00
11246;DHT22;59870;50.106;8.580;2023-08-07T04:06:07;18.50;93.20
11246;DHT22;59870;50.106;8.580;2023-08-07T04:08:34;18.10;93.00
11246;DHT22;59870;50.106;8.580;2023-08-07T04:11:04;18.10;93.00
11246;DHT22;59870;50.106;8.580;2023-08-07T04:13:33;18.20;93.00
11246;DHT22;59870;50.106;8.580;2023-08-07T04:16:02;18.50;93.00
11246;DHT22;59870;50.106;8.580;2023-08-07T04:18:35;18.20;93.00
11246;DHT22;59870;50.106;8.580;2023-08-07T04:21:03;18.20;92.90
11246;DHT22;59870;50.106;8.580;2023-08-07T04:23:32;18.60;93.00
11246;DHT22;59870;50.106;8.580;2023-08-07T04:26:00;18.20;92.90
11246;DHT22;59870;50.106;8.580;2023-08-07T04:28:30;18.20;93.00
11246;DHT22;59870;50.106;8.580;2023-08-07T04:30:58;18.20;93.00
11246;DHT22;59870;50.106;8.580;2023-08-07T04:33:25;18.20;92.60
11246;DHT22;59870;50.106;8.580;2023-08-07T04:35:53;18.40;92.90
11246;DHT22;59870;50.106;8.580;2023-08-07T04:38:21;18.20;92.70
11246;DHT22;59870;50.106;8.580;2023-08-07T04:40:49;18.20;92.50
11246;DHT22;59870;50.106;8.580;2023-08-07T04:43:18;18.20;92.70
11246;DHT22;59870;50.106;8.580;2023-08-07T04:45:48;18.20;92.70
11246;DHT22;59870;50.106;8.580;2023-08-07T04:48:16;18.20;92.70
11246;DHT22;59870;50.106;8.580;2023-08-07T04:50:44;18.20;93.10
11246;DHT22;59870;50.106;8.580;2023-08-07T04:53:12;18.20;92.80
11246;DHT22;59870;50.106;8.580;2023-08-07T04:55:40;18.20;92.80
11246;DHT22;59870;50.106;8.580;2023-08-07T04:58:07;18.30;92.80
11246;DHT22;59870;50.106;8.580;2023-08-07T05:00:36;18.20;92.60
11246;DHT22;59870;50.106;8.580;2023-08-07T05:03:03;18.20;93.00
11246;DHT22;59870;50.106;8.580;2023-08-07T05:05:31;18.20;92.80
11246;DHT22;59870;50.106;8.580;2023-08-07T05:07:59;18.20;92.70
11246;DHT22;59870;50.106;8.580;2023-08-07T05:10:26;18.20;92.60
11246;DHT22;59870;50.106;8.580;2023-08-07T05:12:54;18.20;92.50
11246;DHT22;59870;50.106;8.580;2023-08-07T05:15:25;18.20;92.60
11246;DHT22;59870;50.106;8.580;2023-08-07T05:17:53;18.20;92.40
11246;DHT22;59870;50.106;8.580;2023-08-07T05:20:20;18.30;92.40
11246;DHT22;59870;50.106;8.580;2023-08-07T05:22:48;18.30;92.50
11246;DHT22;59870;50.106;8.580;2023-08-07T05:25:16;18.30;92.30
11246;DHT22;59870;50.106;8.580;2023-08-07T05:27:45;18.30;92.30
11246;DHT22;59870;50.106;8.580;2023-08-07T05:30:13;18.30;92.30
11246;DHT22;59870;50.106;8.580;2023-08-07T05:32:41;18.30;92.30
11246;DHT22;59870;50.106;8.580;2023-08-07T05:35:08;18.30;92.20
11246;DHT22;59870;50.106;8.580;2023-08-07T05:37:36;18.30;92.30
11246;DHT22;59870;50.106;8.580;2023-08-07T05:40:05;18.30;92.30
11246;DHT22;59870;50.106;8.580;2023-08-07T05:42:33;18.40;92.20
11246;DHT22;59870;50.106;8.580;2023-08-07T05:45:02;18.40;92.30
11246;DHT22;59870;50.106;8.580;2023-08-07T05:47:29;18.40;92.20
11246;DHT22;59870;50.106;8.580;2023-08-07T05:49:57;18.40;92.10
11246;DHT22;59870;50.106;8.580;2023-08-07T05:52:24;18.40;92.20
11246;DHT22;59870;50.106;8.580;2023-08-07T05:54:51;18.40;92.00
11246;DHT22;59870;50.106;8.580;2023-08-07T05:57:19;18.40;92.20
11246;DHT22;59870;50.106;8.580;2023-08-07T05:59:46;18.40;92.30
11246;DHT22;59870;50.106;8.580;2023-08-07T06:02:14;18.30;92.40
11246;DHT22;59870;50.106;8.580;2023-08-07T06:04:41;18.40;92.50
11246;DHT22;59870;50.106;8.580;2023-08-07T06:07:09;18.40;92.40
11246;DHT22;59870;50.106;8.580;2023-08-07T06:09:36;18.40;92.70
11246;DHT22;59870;50.106;8.580;2023-08-07T06:12:04;18.40;92.60
11246;DHT22;59870;50.106;8.580;2023-08-07T06:14:32;18.40;92.70
11246;DHT22;59870;50.106;8.580;2023-08-07T06:17:00;18.40;92.60
11246;DHT22;59870;50.106;8.580;2023-08-07T06:19:28;18.60;92.80
11246;DHT22;59870;50.106;8.580;2023-08-07T06:21:59;18.40;92.50
11246;DHT22;59870;50.106;8.580;2023-08-07T06:24:28;18.70;92.60
11246;DHT22;59870;50.106;8.580;2023-08-07T06:26:56;18.40;92.40
11246;DHT22;59870;50.106;8.580;2023-08-07T06:29:23;18.40;92.70
11246;DHT22;59870;50.106;8.580;2023-08-07T06:31:51;18.40;92.40
11246;DHT22;59870;50.106;8.580;2023-08-07T06:34:18;18.30;92.30
11246;DHT22;59870;50.106;8.580;2023-08-07T06:36:46;18.40;92.80
11246;DHT22;59870;50.106;8.580;2023-08-07T06:39:14;18.30;92.40
11246;DHT22;59870;50.106;8.580;2023-08-07T06:41:41;18.40;92.50
11246;DHT22;59870;50.106;8.580;2023-08-07T06:44:09;18.40;92.50
11246;DHT22;59870;50.106;8.580;2023-08-07T06:46:37;18.40;92.70
11246;DHT22;59870;50.106;8.580;2023-08-07T06:49:04;18.40;92.30
11246;DHT22;59870;50.106;8.580;2023-08-07T06:51:32;18.40;92.20
11246;DHT22;59870;50.106;8.580;2023-08-07T06:54:00;18.40;92.40
11246;DHT22;59870;50.106;8.580;2023-08-07T06:56:27;18.40;92.20
11246;DHT22;59870;50.106;8.580;2023-08-07T06:58:55;18.40;92.50
11246;DHT22;59870;50.106;8.580;2023-08-07T07:01:22;18.40;92.40
11246;DHT22;59870;50.106;8.580;2023-08-07T07:03:49;18.50;92.40
11246;DHT22;59870;50.106;8.580;2023-08-07T07:06:20;18.50;92.30
11246;DHT22;59870;50.106;8.580;2023-08-07T07:08:48;18.50;92.20
11246;DHT22;59870;50.106;8.580;2023-08-07T07:11:16;18.50;92.20
11246;DHT22;59870;50.106;8.580;2023-08-07T07:13:46;18.50;92.00
11246;DHT22;59870;50.106;8.580;2023-08-07T07:16:14;18.50;91.90
11246;DHT22;59870;50.106;8.580;2023-08-07T07:18:41;18.60;92.00
11246;DHT22;59870;50.106;8.580;2023-08-07T07:21:09;18.60;91.80
11246;DHT22;59870;50.106;8.580;2023-08-07T07:23:45;18.60;91.80
11246;DHT22;59870;50.106;8.580;2023-08-07T07:26:12;18.70;91.80
11246;DHT22;59870;50.106;8.580;2023-08-07T07:28:39;18.60;91.70
11246;DHT22;59870;50.106;8.580;2023-08-07T07:31:07;18.90;92.00
11246;DHT22;59870;50.106;8.580;2023-08-07T07:33:39;18.60;91.40
11246;DHT22;59870;50.106;8.580;2023-08-07T07:36:14;18.70;91.40
11246;DHT22;59870;50.106;8.580;2023-08-07T07:38:43;18.70;91.30
11246;DHT22;59870;50.106;8.580;2023-08-07T07:41:14;18.70;91.40
11246;DHT22;59870;50.106;8.580;2023-08-07T07:43:41;18.90;91.40
11246;DHT22;59870;50.106;8.580;2023-08-07T07:46:10;18.60;91.30
11246;DHT22;59870;50.106;8.580;2023-08-07T07:48:38;18.70;91.00
11246;DHT22;59870;50.106;8.580;2023-08-07T07:51:06;18.70;91.10
11246;DHT22;59870;50.106;8.580;2023-08-07T07:53:33;18.80;91.00
11246;DHT22;59870;50.106;8.580;2023-08-07T07:56:01;19.00;91.20
11246;DHT22;59870;50.106;8.580;2023-08-07T07:58:28;18.70;90.80
11246;DHT22;59870;50.106;8.580;2023-08-07T08:00:55;18.70;91.10
11246;DHT22;59870;50.106;8.580;2023-08-07T08:03:24;18.40;91.00
11246;DHT22;59870;50.106;8.580;2023-08-07T08:05:52;18.80;91.10
11246;DHT22;59870;50.106;8.580;2023-08-07T08:08:19;18.80;91.10
11246;DHT22;59870;50.106;8.580;2023-08-07T08:10:47;18.80;90.80
11246;DHT22;59870;50.106;8.580;2023-08-07T08:13:15;18.90;90.70
11246;DHT22;59870;50.106;8.580;2023-08-07T08:15:44;19.20;91.10
11246;DHT22;59870;50.106;8.580;2023-08-07T08:18:12;18.90;90.90
11246;DHT22;59870;50.106;8.580;2023-08-07T08:20:42;18.90;90.60
11246;DHT22;59870;50.106;8.580;2023-08-07T08:23:10;18.90;90.70
11246;DHT22;59870;50.106;8.580;2023-08-07T08:25:37;18.90;90.70
11246;DHT22;59870;50.106;8.580;2023-08-07T08:28:05;18.90;90.80
11246;DHT22;59870;50.106;8.580;2023-08-07T08:30:32;18.90;90.70
11246;DHT22;59870;50.106;8.580;2023-08-07T08:33:00;18.90;90.70
11246;DHT22;59870;50.106;8.580;2023-08-07T08:35:27;18.90;90.50
11246;DHT22;59870;50.106;8.580;2023-08-07T08:37:55;19.30;90.80
11246;DHT22;59870;50.106;8.580;2023-08-07T08:40:24;18.90;90.50
11246;DHT22;59870;50.106;8.580;2023-08-07T08:42:51;19.30;90.80
11246;DHT22;59870;50.106;8.580;2023-08-07T08:45:21;19.00;90.70
11246;DHT22;59870;50.106;8.580;2023-08-07T08:47:51;18.80;90.60
11246;DHT22;59870;50.106;8.580;2023-08-07T08:50:25;19.00;90.40
11246;DHT22;59870;50.106;8.580;2023-08-07T08:52:58;19.10;90.20
11246;DHT22;59870;50.106;8.580;2023-08-07T08:55:29;19.10;90.40
11246;DHT22;59870;50.106;8.580;2023-08-07T08:58:00;19.10;90.50
11246;DHT22;59870;50.106;8.580;2023-08-07T09:00:29;19.30;90.50
11246;DHT22;59870;50.106;8.580;2023-08-07T09:02:57;19.10;90.40
11246;DHT22;59870;50.106;8.580;2023-08-07T09:05:27;19.10;90.90
11246;DHT22;59870;50.106;8.580;2023-08-07T09:07:55;19.10;90.60
11246;DHT22;59870;50.106;8.580;2023-08-07T09:10:25;19.10;90.70
11246;DHT22;59870;50.106;8.580;2023-08-07T09:13:02;19.10;90.70
11246;DHT22;59870;50.106;8.580;2023-08-07T09:15:33;19.10;90.70
11246;DHT22;59870;50.106;8.580;2023-08-07T09:18:04;19.30;91.10
11246;DHT22;59870;50.106;8.580;2023-08-07T09:20:36;19.10;91.20
11246;DHT22;59870;50.106;8.580;2023-08-07T09:23:07;19.40;91.00
11246;DHT22;59870;50.106;8.580;2023-08-07T09:25:35;19.20;90.90
11246;DHT22;59870;50.106;8.580;2023-08-07T09:28:04;19.40;91.10
11246;DHT22;59870;50.106;8.580;2023-08-07T09:30:36;19.40;91.20
11246;DHT22;59870;50.106;8.580;2023-08-07T09:33:05;19.20;90.80
11246;DHT22;59870;50.106;8.580;2023-08-07T09:35:34;19.30;90.80
11246;DHT22;59870;50.106;8.580;2023-08-07T09:38:02;19.50;90.90
11246;DHT22;59870;50.106;8.580;2023-08-07T09:40:30;19.50;91.00
11246;DHT22;59870;50.106;8.580;2023-08-07T09:43:01;19.50;90.50
11246;DHT22;59870;50.106;8.580;2023-08-07T09:45:30;19.30;90.60
11246;DHT22;59870;50.106;8.580;2023-08-07T09:48:04;19.70;91.10
11246;DHT22;59870;50.106;8.580;2023-08-07T09:50:32;19.30;91.20
11246;DHT22;59870;50.106;8.580;2023-08-07T09:52:59;19.30;91.10
11246;DHT22;59870;50.106;8.580;2023-08-07T09:55:27;19.30;91.00
11246;DHT22;59870;50.106;8.580;2023-08-07T10:16:54;19.40;91.70
11246;DHT22;59870;50.106;8.580;2023-08-07T10:19:22;19.40;91.60
11246;DHT22;59870;50.106;8.580;2023-08-07T10:21:51;19.40;91.50
11246;DHT22;59870;50.106;8.580;2023-08-07T10:24:20;19.60;91.60
11246;DHT22;59870;50.106;8.580;2023-08-07T10:26:48;19.50;91.80
11246;DHT22;59870;50.106;8.580;2023-08-07T10:29:19;19.30;92.20
11246;DHT22;59870;50.106;8.580;2023-08-07T10:31:48;19.70;92.00
11246;DHT22;59870;50.106;8.580;2023-08-07T10:34:17;19.60;91.90
11246;DHT22;59870;50.106;8.580;2023-08-07T10:36:44;19.40;91.70
11246;DHT22;59870;50.106;8.580;2023-08-07T10:39:12;19.40;91.90
11246;DHT22;59870;50.106;8.580;2023-08-07T10:41:45;19.60;91.60
11246;DHT22;59870;50.106;8.580;2023-08-07T10:44:24;19.70;91.90
11246;DHT22;59870;50.106;8.580;2023-08-07T10:46:56;19.40;91.40
11246;DHT22;59870;50.106;8.580;2023-08-07T10:49:38;19.40;91.40
11246;DHT22;59870;50.106;8.580;2023-08-07T10:52:11;19.40;91.50
11246;DHT22;59870;50.106;8.580;2023-08-07T10:54:49;19.40;91.60
11246;DHT22;59870;50.106;8.580;2023-08-07T10:57:18;19.50;91.10
11246;DHT22;59870;50.106;8.580;2023-08-07T11:00:01;19.50;91.10
11246;DHT22;59870;50.106;8.580;2023-08-07T11:02:37;19.60;91.10
11246;DHT22;59870;50.106;8.580;2023-08-07T11:05:08;19.60;91.30
11246;DHT22;59870;50.106;8.580;2023-08-07T11:07:40;19.40;91.20
11246;DHT22;59870;50.106;8.580;2023-08-07T11:10:08;19.60;91.20
11246;DHT22;59870;50.106;8.580;2023-08-07T11:12:40;19.50;91.20
11246;DHT22;59870;50.106;8.580;2023-08-07T11:15:12;19.70;91.10
11246;DHT22;59870;50.106;8.580;2023-08-07T11:17:39;19.50;90.70
11246;DHT22;59870;50.106;8.580;2023-08-07T11:20:09;19.50;90.50
11246;DHT22;59870;50.106;8.580;2023-08-07T11:22:38;19.60;90.60
11246;DHT22;59870;50.106;8.580;2023-08-07T11:25:06;19.70;90.80
11246;DHT22;59870;50.106;8.580;2023-08-07T11:27:38;19.60;90.80
11246;DHT22;59870;50.106;8.580;2023-08-07T11:39:44;19.70;90.20
11246;DHT22;59870;50.106;8.580;2023-08-07T11:42:13;19.70;90.10
11246;DHT22;59870;50.106;8.580;2023-08-07T11:44:41;19.70;89.80
11246;DHT22;59870;50.106;8.580;2023-08-07T11:47:10;19.90;90.40
11246;DHT22;59870;50.106;8.580;2023-08-07T11:49:38;20.00;90.20
11246;DHT22;59870;50.106;8.580;2023-08-07T11:52:06;20.00;89.50
11246;DHT22;59870;50.106;8.580;2023-08-07T11:54:38;19.90;89.40
11246;DHT22;59870;50.106;8.580;2023-08-07T11:57:53;20.10;89.50
11246;DHT22;59870;50.106;8.580;2023-08-07T12:00:25;20.10;88.90
11246;DHT22;59870;50.106;8.580;2023-08-07T12:12:23;20.20;89.30
11246;DHT22;59870;50.106;8.580;2023-08-07T12:14:54;20.20;89.50
11246;DHT22;59870;50.106;8.580;2023-08-07T12:17:22;20.30;90.40
11246;DHT22;59870;50.106;8.580;2023-08-07T12:19:50;20.40;89.60
11246;DHT22;59870;50.106;8.580;2023-08-07T12:22:19;20.50;88.00
11246;DHT22;59870;50.106;8.580;2023-08-07T12:24:46;20.60;87.70
11246;DHT22;59870;50.106;8.580;2023-08-07T12:27:14;20.90;88.80
11246;DHT22;59870;50.106;8.580;2023-08-07T12:29:42;21.00;88.40
11246;DHT22;59870;50.106;8.580;2023-08-07T12:32:09;20.90;85.80
11246;DHT22;59870;50.106;8.580;2023-08-07T12:34:37;21.40;85.40
11246;DHT22;59870;50.106;8.580;2023-08-07T12:37:11;21.20;85.00
11246;DHT22;59870;50.106;8.580;2023-08-07T12:39:40;21.30;86.00
11246;DHT22;59870;50.106;8.580;2023-08-07T12:42:10;21.40;84.70
11246;DHT22;59870;50.106;8.580;2023-08-07T12:44:41;21.60;85.90
11246;DHT22;59870;50.106;8.580;2023-08-07T12:47:11;21.70;86.10
11246;DHT22;59870;50.106;8.580;2023-08-07T12:49:39;21.80;84.10
11246;DHT22;59870;50.106;8.580;2023-08-07T12:52:07;21.90;83.40
11246;DHT22;59870;50.106;8.580;2023-08-07T12:54:35;22.00;81.70
11246;DHT22;59870;50.106;8.580;2023-08-07T12:57:02;22.10;82.40
11246;DHT22;59870;50.106;8.580;2023-08-07T12:59:30;22.10;82.20
11246;DHT22;59870;50.106;8.580;2023-08-07T13:01:57;22.10;81.40
11246;DHT22;59870;50.106;8.580;2023-08-07T13:04:25;22.50;83.10
11246;DHT22;59870;50.106;8.580;2023-08-07T13:06:53;22.10;81.50
11246;DHT22;59870;50.106;8.580;2023-08-07T13:09:21;22.20;81.30
11246;DHT22;59870;50.106;8.580;2023-08-07T13:11:49;22.20;81.10
11246;DHT22;59870;50.106;8.580;2023-08-07T13:14:16;22.30;81.30
11246;DHT22;59870;50.106;8.580;2023-08-07T13:16:44;22.80;83.10
11246;DHT22;59870;50.106;8.580;2023-08-07T13:19:11;22.30;80.70
11246;DHT22;59870;50.106;8.580;2023-08-07T13:21:39;22.80;80.00
11246;DHT22;59870;50.106;8.580;2023-08-07T13:24:06;23.00;79.10
11246;DHT22;59870;50.106;8.580;2023-08-07T13:26:34;22.50;78.10
11246;DHT22;59870;50.106;8.580;2023-08-07T13:29:01;23.10;79.00
11246;DHT22;59870;50.106;8.580;2023-08-07T13:31:29;23.10;79.20
11246;DHT22;59870;50.106;8.580;2023-08-07T13:33:56;22.50;78.50
11246;DHT22;59870;50.106;8.580;2023-08-07T13:36:24;22.60;78.20
11246;DHT22;59870;50.106;8.580;2023-08-07T13:38:52;22.70;80.10
11246;DHT22;59870;50.106;8.580;2023-08-07T13:41:19;22.70;81.90
11246;DHT22;59870;50.106;8.580;2023-08-07T13:43:46;23.20;81.40
11246;DHT22;59870;50.106;8.580;2023-08-07T13:46:14;23.40;80.20
11246;DHT22;59870;50.106;8.580;2023-08-07T13:48:41;23.40;81.10
11246;DHT22;59870;50.106;8.580;2023-08-07T13:51:09;23.00;79.80
11246;DHT22;59870;50.106;8.580;2023-08-07T13:53:37;23.00;79.40
11246;DHT22;59870;50.106;8.580;2023-08-07T13:56:05;23.10;79.50
11246;DHT22;59870;50.106;8.580;2023-08-07T13:58:33;23.60;79.20
11246;DHT22;59870;50.106;8.580;2023-08-07T14:01:01;23.10;77.30
11246;DHT22;59870;50.106;8.580;2023-08-07T14:03:28;23.60;77.60
11246;DHT22;59870;50.106;8.580;2023-08-07T14:05:56;23.00;78.20
11246;DHT22;59870;50.106;8.580;2023-08-07T14:08:24;23.00;76.00
11246;DHT22;59870;50.106;8.580;2023-08-07T14:10:52;23.00;77.60
11246;DHT22;59870;50.106;8.580;2023-08-07T14:13:20;23.10;77.60
11246;DHT22;59870;50.106;8.580;2023-08-07T14:15:48;23.10;77.40
11246;DHT22;59870;50.106;8.580;2023-08-07T14:18:16;23.70;77.10
11246;DHT22;59870;50.106;8.580;2023-08-07T14:20:43;23.40;76.10
11246;DHT22;59870;50.106;8.580;2023-08-07T14:23:31;23.10;76.80
11246;DHT22;59870;50.106;8.580;2023-08-07T14:26:01;23.20;75.60
11246;DHT22;59870;50.106;8.580;2023-08-07T14:28:29;23.20;75.90
11246;DHT22;59870;50.106;8.580;2023-08-07T14:30:59;23.20;74.20
11246;DHT22;59870;50.106;8.580;2023-08-07T14:33:28;23.20;74.90
11246;DHT22;59870;50.106;8.580;2023-08-07T14:35:56;23.20;73.20
11246;DHT22;59870;50.106;8.580;2023-08-07T14:38:24;23.20;73.20
11246;DHT22;59870;50.106;8.580;2023-08-07T14:40:51;23.60;73.20
11246;DHT22;59870;50.106;8.580;2023-08-07T14:43:19;23.40;72.50
11246;DHT22;59870;50.106;8.580;2023-08-07T14:45:46;23.60;74.30
11246;DHT22;59870;50.106;8.580;2023-08-07T14:48:14;23.80;76.30
11246;DHT22;59870;50.106;8.580;2023-08-07T14:50:42;23.90;76.00
11246;DHT22;59870;50.106;8.580;2023-08-07T14:53:10;23.70;75.40
11246;DHT22;59870;50.106;8.580;2023-08-07T14:55:37;23.80;75.20
11246;DHT22;59870;50.106;8.580;2023-08-07T14:58:05;23.30;74.40
11246;DHT22;59870;50.106;8.580;2023-08-07T15:00:34;23.30;73.60
11246;DHT22;59870;50.106;8.580;2023-08-07T15:03:02;23.30;72.90
11246;DHT22;59870;50.106;8.580;2023-08-07T15:05:30;23.40;73.60
11246;DHT22;59870;50.106;8.580;2023-08-07T15:08:00;23.90;75.70
11246;DHT22;59870;50.106;8.580;2023-08-07T15:10:28;23.40;76.20
11246;DHT22;59870;50.106;8.580;2023-08-07T15:12:56;23.40;75.50
11246;DHT22;59870;50.106;8.580;2023-08-07T15:15:24;23.50;73.50
11246;DHT22;59870;50.106;8.580;2023-08-07T15:17:52;23.50;73.90
11246;DHT22;59870;50.106;8.580;2023-08-07T15:20:19;23.50;73.20
11246;DHT22;59870;50.106;8.580;2023-08-07T15:22:47;23.60;70.20
11246;DHT22;59870;50.106;8.580;2023-08-07T15:25:16;23.60;70.10
11246;DHT22;59870;50.106;8.580;2023-08-07T15:27:43;23.60;69.40
11246;DHT22;59870;50.106;8.580;2023-08-07T15:30:11;23.60;69.80
11246;DHT22;59870;50.106;8.580;2023-08-07T15:32:38;23.60;69.90
11246;DHT22;59870;50.106;8.580;2023-08-07T15:35:08;23.60;71.00
11246;DHT22;59870;50.106;8.580;2023-08-07T15:37:36;23.70;72.10
11246;DHT22;59870;50.106;8.580;2023-08-07T15:40:04;23.70;69.60
11246;DHT22;59870;50.106;8.580;2023-08-07T15:42:32;23.80;68.60
11246;DHT22;59870;50.106;8.580;2023-08-07T15:44:59;23.80;68.70
11246;DHT22;59870;50.106;8.580;2023-08-07T15:47:27;24.10;69.60
11246;DHT22;59870;50.106;8.580;2023-08-07T15:49:54;23.80;67.70
11246;DHT22;59870;50.106;8.580;2023-08-07T15:52:22;23.90;68.10
11246;DHT22;59870;50.106;8.580;2023-08-07T15:54:49;23.90;69.40
11246;DHT22;59870;50.106;8.580;2023-08-07T15:57:17;24.40;69.60
11246;DHT22;59870;50.106;8.580;2023-08-07T15:59:44;24.10;69.60
11246;DHT22;59870;50.106;8.580;2023-08-07T16:02:12;24.00;67.80
11246;DHT22;59870;50.106;8.580;2023-08-07T16:04:39;24.20;69.00
11246;DHT22;59870;50.106;8.580;2023-08-07T16:07:07;24.10;69.30
11246;DHT22;59870;50.106;8.580;2023-08-07T16:09:35;24.70;69.90
11246;DHT22;59870;50.106;8.580;2023-08-07T16:12:02;24.10;66.30
11246;DHT22;59870;50.106;8.580;2023-08-07T16:14:30;24.10;67.60
11246;DHT22;59870;50.106;8.580;2023-08-07T16:17:02;24.50;68.30
11246;DHT22;59870;50.106;8.580;2023-08-07T16:19:30;24.10;67.40
11246;DHT22;59870;50.106;8.580;2023-08-07T16:21:58;24.10;67.30
11246;DHT22;59870;50.106;8.580;2023-08-07T16:24:26;24.40;66.40
11246;DHT22;59870;50.106;8.580;2023-08-07T16:26:54;24.10;68.00